Time;durP1;ratioP1;P1;durP2;ratioP2;P2;SDS_P1;SDS_P2;PMS_P1;PMS_P2;Temp;Humidity;BMP_temperature;BMP_pressure;BME280_temperature;BME280_humidity;BME280_pressure;Samples;Min_cycle;Max_cycle;Signal;HPM_P1;HPM_P2
2022/10/12 00:01:42;;;;;;;5.72;2.50;;;10.10;99.90;;;;;;4157768;28;20043;-65
2022/10/12 00:03:43;;;;;;;5.28;2.60;;;10.10;99.90;;;;;;4157290;28;20095;-65
2022/10/12 00:05:44;;;;;;;4.22;2.45;;;10.20;99.90;;;;;;4156930;28;20042;-65
2022/10/12 00:07:45;;;;;;;4.95;2.47;;;10.10;99.90;;;;;;4156517;28;20029;-66
2022/10/12 00:09:46;;;;;;;5.13;2.30;;;10.10;99.90;;;;;;4152333;28;20468;-66
2022/10/12 00:11:46;;;;;;;4.93;2.55;;;10.10;99.90;;;;;;4155295;28;20022;-66
2022/10/12 00:13:47;;;;;;;3.53;2.08;;;10.10;99.90;;;;;;4155067;28;20481;-66
2022/10/12 00:15:48;;;;;;;4.60;2.20;;;10.10;99.90;;;;;;4156467;28;20528;-66
2022/10/12 00:17:48;;;;;;;6.20;2.13;;;10.00;99.90;;;;;;4160090;28;20034;-66
2022/10/12 00:19:49;;;;;;;2.45;1.85;;;10.00;99.90;;;;;;4155964;28;20067;-66
2022/10/12 00:21:50;;;;;;;6.70;2.20;;;9.90;99.90;;;;;;4155427;28;20038;-66
2022/10/12 00:23:51;;;;;;;4.78;2.50;;;9.80;99.90;;;;;;4158433;28;20062;-66
2022/10/12 00:25:51;;;;;;;5.20;2.50;;;9.80;99.90;;;;;;4156128;28;20485;-66
2022/10/12 00:27:52;;;;;;;3.80;2.13;;;9.80;99.90;;;;;;4156097;28;20033;-66
2022/10/12 00:29:53;;;;;;;3.33;1.88;;;9.70;99.90;;;;;;4154652;28;20046;-66
2022/10/12 00:31:53;;;;;;;4.80;2.38;;;9.70;99.90;;;;;;4159484;28;20400;-66
2022/10/12 00:33:54;;;;;;;5.30;2.33;;;9.70;99.90;;;;;;4157113;28;20497;-66
2022/10/12 00:35:55;;;;;;;5.07;2.42;;;9.70;99.90;;;;;;4155657;28;20148;-67
2022/10/12 00:37:55;;;;;;;4.32;2.22;;;9.70;99.90;;;;;;4156974;28;20049;-67
2022/10/12 00:39:56;;;;;;;6.63;2.60;;;9.70;99.90;;;;;;4157621;28;20100;-66
2022/10/12 00:41:57;;;;;;;4.63;2.10;;;9.70;99.90;;;;;;4156902;28;20060;-66
2022/10/12 00:43:57;;;;;;;5.72;2.40;;;9.70;99.90;;;;;;4157174;28;20466;-66
2022/10/12 00:46:00;;;;;;;4.65;2.10;;;9.60;99.90;;;;;;4156243;28;20124;-67
2022/10/12 00:48:00;;;;;;;4.57;1.88;;;9.70;99.90;;;;;;4156576;28;20060;-66
2022/10/12 00:50:23;;;;;;;3.78;2.13;;;9.60;99.90;;;;;;4156359;28;20044;-67
2022/10/12 00:52:30;;;;;;;5.23;2.17;;;9.60;99.90;;;;;;4155814;28;20157;-66
2022/10/12 00:54:41;;;;;;;5.22;2.15;;;9.60;99.90;;;;;;4159045;28;20272;-66
2022/10/12 00:56:45;;;;;;;6.20;2.80;;;9.60;99.90;;;;;;4151760;28;20030;-65
2022/10/12 00:58:48;;;;;;;6.03;2.65;;;9.60;99.90;;;;;;4155094;28;20037;-66
2022/10/12 01:00:50;;;;;;;4.93;2.47;;;9.60;99.90;;;;;;4154664;28;20037;-66
2022/10/12 01:02:53;;;;;;;3.95;2.53;;;9.60;99.90;;;;;;4156194;28;20547;-66
2022/10/12 01:04:53;;;;;;;;;;;9.60;99.90;;;;;;4156670;28;20119;-66
2022/10/12 01:06:54;;;;;;;3.45;2.08;;;9.60;99.90;;;;;;4154026;28;19909;-66
2022/10/12 01:08:56;;;;;;;4.22;2.47;;;9.60;99.90;;;;;;4154889;28;20046;-66
2022/10/12 01:10:57;;;;;;;4.40;2.40;;;9.50;99.90;;;;;;4153239;28;20054;-66
2022/10/12 01:12:59;;;;;;;4.50;2.17;;;9.50;99.90;;;;;;4156221;28;20493;-66
2022/10/12 01:14:59;;;;;;;4.50;2.33;;;9.50;99.90;;;;;;4153917;28;20077;-66
2022/10/12 01:17:07;;;;;;;5.30;2.63;;;9.50;99.90;;;;;;4154577;28;20088;-66
2022/10/12 01:19:24;;;;;;;7.72;2.58;;;9.50;99.90;;;;;;4149183;28;20064;-66
2022/10/12 01:21:25;;;;;;;6.60;2.30;;;9.50;99.90;;;;;;4153488;28;20369;-66
2022/10/12 01:23:49;;;;;;;5.00;2.22;;;9.50;99.90;;;;;;4158962;28;20053;-66
2022/10/12 01:26:23;;;;;;;3.50;2.00;;;9.50;99.90;;;;;;4160635;28;20037;-66
2022/10/12 01:28:42;;;;;;;5.43;2.42;;;9.50;99.90;;;;;;4151420;28;20065;-66
2022/10/12 01:30:46;;;;;;;4.95;2.20;;;9.40;99.90;;;;;;4157090;28;20037;-66
2022/10/12 01:32:59;;;;;;;5.10;2.13;;;9.40;99.90;;;;;;4156953;28;20037;-66
2022/10/12 01:35:08;;;;;;;3.95;1.95;;;9.40;99.90;;;;;;4158417;28;20042;-66
2022/10/12 01:37:36;;;;;;;5.20;2.38;;;9.40;99.90;;;;;;4155477;28;20045;-66
2022/10/12 01:39:59;;;;;;;5.75;2.10;;;9.40;99.90;;;;;;4155706;28;20064;-66
2022/10/12 01:42:05;;;;;;;4.13;2.30;;;9.40;99.90;;;;;;4148832;28;20095;-67
2022/10/12 01:44:06;;;;;;;4.60;2.30;;;9.30;99.90;;;;;;4155759;28;20512;-66
2022/10/12 01:46:16;;;;;;;5.55;2.60;;;9.40;99.90;;;;;;4156017;28;20046;-66
2022/10/12 01:48:17;;;;;;;4.85;2.08;;;9.30;99.90;;;;;;4154382;28;20489;-66
2022/10/12 01:50:20;;;;;;;4.75;2.25;;;9.30;99.90;;;;;;4153504;28;20022;-66
2022/10/12 01:52:30;;;;;;;3.40;2.22;;;9.30;99.90;;;;;;4154775;28;20076;-66
2022/10/12 01:54:52;;;;;;;4.30;2.35;;;9.30;99.90;;;;;;4157266;28;20136;-66
2022/10/12 01:56:57;;;;;;;3.95;2.30;;;9.30;99.90;;;;;;4144079;28;20037;-66
2022/10/12 01:59:30;;;;;;;4.22;2.33;;;9.30;99.90;;;;;;4145056;28;20035;-66
2022/10/12 02:01:52;;;;;;;3.38;2.28;;;9.30;99.90;;;;;;4143008;28;20033;-66
2022/10/12 02:03:57;;;;;;;5.22;2.80;;;9.30;99.90;;;;;;4150003;28;20042;-66
2022/10/12 02:06:03;;;;;;;6.13;2.78;;;9.30;99.90;;;;;;4146610;28;20457;-66
2022/10/12 02:08:15;;;;;;;5.32;2.53;;;9.30;99.90;;;;;;4151896;28;20084;-66
2022/10/12 02:10:37;;;;;;;3.65;2.33;;;9.30;99.90;;;;;;4145341;28;20044;-66
2022/10/12 02:12:41;;;;;;;6.53;2.92;;;9.30;99.90;;;;;;4143200;28;20179;-66
2022/10/12 02:14:47;;;;;;;6.80;3.55;;;9.30;99.90;;;;;;4152796;28;20396;-66
2022/10/12 02:16:56;;;;;;;7.20;3.85;;;9.30;99.90;;;;;;4144907;28;20056;-66
2022/10/12 02:18:58;;;;;;;7.15;3.58;;;9.20;99.90;;;;;;4147793;28;20073;-66
2022/10/12 02:21:02;;;;;;;7.60;3.38;;;9.20;99.90;;;;;;4145321;28;20564;-66
2022/10/12 02:23:02;;;;;;;9.02;3.70;;;9.20;99.90;;;;;;4149243;28;20072;-66
2022/10/12 02:25:07;;;;;;;6.45;3.53;;;9.30;99.90;;;;;;4147961;28;20034;-70
2022/10/12 02:27:11;;;;;;;7.97;3.22;;;9.20;99.90;;;;;;4146699;28;20046;-66
2022/10/12 02:29:20;;;;;;;4.90;2.80;;;9.30;99.90;;;;;;4131269;28;20034;-67
2022/10/12 02:31:42;;;;;;;8.82;3.30;;;9.30;99.90;;;;;;4150502;28;20501;-66
2022/10/12 02:34:00;;;;;;;6.72;3.17;;;9.30;99.90;;;;;;4154476;28;20030;-66
2022/10/12 02:36:15;;;;;;;3.55;2.42;;;9.30;99.90;;;;;;4152370;28;20034;-66
2022/10/12 02:38:25;;;;;;;4.70;2.65;;;9.30;99.90;;;;;;4147166;28;20033;-66
2022/10/12 02:40:42;;;;;;;5.55;2.53;;;9.20;99.90;;;;;;4135088;28;21068;-66
2022/10/12 02:42:50;;;;;;;4.97;2.72;;;9.30;99.90;;;;;;4151385;28;20036;-65
2022/10/12 02:44:52;;;;;;;5.93;3.20;;;9.20;99.90;;;;;;4155185;28;20385;-66
2022/10/12 02:46:54;;;;;;;9.32;3.67;;;9.20;99.90;;;;;;4150164;28;20337;-65
2022/10/12 02:48:57;;;;;;;7.47;3.40;;;9.20;99.90;;;;;;4153143;28;20128;-66
2022/10/12 02:50:59;;;;;;;5.45;3.30;;;9.10;99.90;;;;;;4151894;28;20029;-66
2022/10/12 02:53:00;;;;;;;5.28;2.50;;;9.10;99.90;;;;;;4138048;28;20493;-66
2022/10/12 02:55:01;;;;;;;6.72;3.28;;;9.10;99.90;;;;;;4153706;28;20033;-66
2022/10/12 02:57:01;;;;;;;5.88;2.90;;;9.10;99.90;;;;;;4155791;28;20432;-65
2022/10/12 02:59:02;;;;;;;6.68;3.30;;;9.10;99.90;;;;;;4150602;28;20439;-66
2022/10/12 03:01:03;;;;;;;7.13;3.70;;;9.00;99.90;;;;;;4155584;28;20113;-66
2022/10/12 03:03:04;;;;;;;9.10;3.47;;;9.00;99.90;;;;;;4154769;28;20034;-66
2022/10/12 03:05:05;;;;;;;6.75;3.33;;;9.00;99.90;;;;;;4153062;28;20061;-68
2022/10/12 03:07:05;;;;;;;5.30;3.22;;;9.00;99.90;;;;;;4152618;28;20092;-66
2022/10/12 03:09:06;;;;;;;8.00;3.20;;;9.00;99.90;;;;;;4155616;28;20053;-66
2022/10/12 03:11:10;;;;;;;3.85;2.60;;;9.00;99.90;;;;;;4136287;28;20113;-66
2022/10/12 03:13:11;;;;;;;4.63;2.63;;;9.00;99.90;;;;;;4156530;28;20033;-66
2022/10/12 03:15:12;;;;;;;5.35;2.40;;;9.00;99.90;;;;;;4154304;28;20120;-67
2022/10/12 03:17:12;;;;;;;7.97;2.58;;;8.90;99.90;;;;;;4158354;28;20026;-66
2022/10/12 03:19:14;;;;;;;3.97;2.58;;;8.90;99.90;;;;;;4151538;28;20040;-65
2022/10/12 03:21:14;;;;;;;3.95;2.28;;;8.90;99.90;;;;;;4150730;28;20053;-66
2022/10/12 03:23:15;;;;;;;4.82;2.70;;;8.90;99.90;;;;;;4150633;28;20033;-66
2022/10/12 03:25:16;;;;;;;5.90;3.05;;;8.90;99.90;;;;;;4150074;28;20030;-65
2022/10/12 03:27:16;;;;;;;5.80;2.90;;;8.90;99.90;;;;;;4153662;28;20056;-65
2022/10/12 03:29:17;;;;;;;8.25;3.20;;;8.90;99.90;;;;;;4153285;28;20041;-65
2022/10/12 03:31:17;;;;;;;5.80;3.00;;;8.90;99.90;;;;;;4151186;28;20036;-65
2022/10/12 03:33:18;;;;;;;5.05;2.80;;;8.90;99.90;;;;;;4153594;28;20504;-66
2022/10/12 03:35:18;;;;;;;4.22;2.47;;;8.90;99.90;;;;;;4151082;28;20132;-65
2022/10/12 03:37:19;;;;;;;4.45;2.95;;;8.90;99.90;;;;;;4149842;28;20037;-66
2022/10/12 03:39:20;;;;;;;4.65;2.70;;;8.90;99.90;;;;;;4156661;28;20022;-66
2022/10/12 03:41:20;;;;;;;5.78;2.55;;;8.90;99.90;;;;;;4154498;28;20068;-65
2022/10/12 03:43:21;;;;;;;6.13;3.03;;;8.90;99.90;;;;;;4153532;28;20460;-66
2022/10/12 03:45:22;;;;;;;4.60;3.00;;;8.90;99.90;;;;;;4155435;28;20095;-66
2022/10/12 03:47:22;;;;;;;7.43;3.13;;;8.90;99.90;;;;;;4154016;28;20484;-66
2022/10/12 03:49:23;;;;;;;5.10;2.67;;;8.90;99.90;;;;;;4135998;28;20524;-65
2022/10/12 03:51:23;;;;;;;4.07;2.70;;;8.80;99.90;;;;;;4152916;28;20033;-66
2022/10/12 03:53:24;;;;;;;6.93;2.70;;;8.80;99.90;;;;;;4157231;28;20095;-66
2022/10/12 03:55:25;;;;;;;5.57;3.10;;;8.80;99.90;;;;;;4153874;28;20042;-66
2022/10/12 03:57:25;;;;;;;4.85;2.60;;;8.80;99.90;;;;;;4155742;28;20036;-66
2022/10/12 03:59:26;;;;;;;4.82;2.83;;;8.90;99.90;;;;;;4155950;28;20055;-66
2022/10/12 04:01:26;;;;;;;5.68;2.90;;;8.90;99.90;;;;;;4152825;28;20080;-66
2022/10/12 04:03:27;;;;;;;6.13;2.88;;;8.80;99.90;;;;;;4133921;28;20049;-66
2022/10/12 04:05:29;;;;;;;5.43;2.65;;;8.90;99.90;;;;;;4153574;28;20080;-66
2022/10/12 04:07:30;;;;;;;4.55;2.42;;;8.90;99.90;;;;;;4157085;28;20129;-66
2022/10/12 04:09:30;;;;;;;4.57;2.90;;;8.80;99.90;;;;;;4152456;28;20057;-66
2022/10/12 04:11:31;;;;;;;4.47;2.55;;;8.80;99.90;;;;;;4156352;28;20088;-66
2022/10/12 04:13:31;;;;;;;6.40;3.10;;;8.80;99.90;;;;;;4152690;28;20034;-66
2022/10/12 04:15:32;;;;;;;4.55;2.70;;;8.80;99.90;;;;;;4151099;28;20037;-66
2022/10/12 04:17:32;;;;;;;4.30;2.58;;;8.90;99.90;;;;;;4149874;28;20036;-66
2022/10/12 04:19:33;;;;;;;6.80;2.45;;;8.90;99.90;;;;;;4151249;28;20042;-66
2022/10/12 04:21:33;;;;;;;5.90;2.65;;;8.80;99.90;;;;;;4153006;28;20040;-66
2022/10/12 04:23:34;;;;;;;3.97;2.28;;;8.90;99.90;;;;;;4159358;28;20109;-66
2022/10/12 04:25:34;;;;;;;5.57;3.10;;;8.90;99.90;;;;;;4156567;28;20045;-66
2022/10/12 04:27:35;;;;;;;4.70;2.45;;;8.90;99.90;;;;;;4154611;28;20045;-66
2022/10/12 04:29:36;;;;;;;4.45;2.95;;;8.90;99.90;;;;;;4156287;28;20065;-66
2022/10/12 04:31:36;;;;;;;5.35;2.72;;;8.90;99.90;;;;;;4149581;28;20128;-66
2022/10/12 04:33:37;;;;;;;5.03;2.70;;;8.90;99.90;;;;;;4157874;28;20041;-66
2022/10/12 04:35:37;;;;;;;5.38;3.03;;;8.90;99.90;;;;;;4154779;28;20033;-66
2022/10/12 04:37:38;;;;;;;6.07;3.15;;;8.90;99.90;;;;;;4158558;28;20401;-66
2022/10/12 04:39:38;;;;;;;4.72;2.53;;;8.90;99.90;;;;;;4154368;28;20400;-65
2022/10/12 04:41:39;;;;;;;4.85;2.80;;;8.90;99.90;;;;;;4153339;28;20030;-66
2022/10/12 04:43:39;;;;;;;7.30;3.30;;;8.90;99.90;;;;;;4156558;28;20124;-66
2022/10/12 04:45:40;;;;;;;7.63;3.33;;;8.90;99.90;;;;;;4150922;28;20037;-66
2022/10/12 04:47:41;;;;;;;5.53;2.75;;;9.00;99.90;;;;;;4140673;28;20054;-66
2022/10/12 04:49:41;;;;;;;5.38;2.75;;;8.90;99.90;;;;;;4157249;28;20055;-66
2022/10/12 04:51:42;;;;;;;5.55;2.80;;;8.90;99.90;;;;;;4153411;28;20428;-66
2022/10/12 04:53:42;;;;;;;4.85;2.55;;;9.00;99.90;;;;;;4156788;28;20026;-66
2022/10/12 04:55:43;;;;;;;8.65;3.00;;;9.00;99.90;;;;;;4153991;28;20046;-66
2022/10/12 04:57:43;;;;;;;6.60;2.85;;;8.90;99.90;;;;;;4157431;28;20025;-65
2022/10/12 04:59:44;;;;;;;5.47;3.00;;;8.90;99.90;;;;;;4151529;28;20091;-66
2022/10/12 05:01:45;;;;;;;5.03;3.00;;;8.80;99.90;;;;;;4152021;28;20097;-65
2022/10/12 05:03:45;;;;;;;6.78;2.97;;;8.90;99.90;;;;;;4159698;28;20658;-64
2022/10/12 05:05:46;;;;;;;5.50;3.15;;;8.90;99.90;;;;;;4156658;28;20087;-64
2022/10/12 05:07:46;;;;;;;7.57;3.10;;;8.80;99.90;;;;;;4154597;28;20124;-66
2022/10/12 05:09:47;;;;;;;7.63;3.05;;;8.80;99.90;;;;;;4151117;28;20057;-66
2022/10/12 05:11:47;;;;;;;6.30;3.17;;;8.90;99.90;;;;;;4152106;28;20487;-65
2022/10/12 05:13:48;;;;;;;7.53;3.15;;;8.80;99.90;;;;;;4153649;28;20121;-66
2022/10/12 05:15:49;;;;;;;8.30;3.30;;;8.80;99.90;;;;;;4150083;28;20473;-66
2022/10/12 05:17:49;;;;;;;5.75;2.70;;;8.90;99.90;;;;;;4155269;28;20042;-65
2022/10/12 05:19:50;;;;;;;6.88;3.10;;;8.80;99.90;;;;;;4155478;28;20053;-66
2022/10/12 05:21:53;;;;;;;3.08;2.22;;;8.70;99.90;;;;;;4153054;28;20445;-66
2022/10/12 05:23:53;;;;;;;4.78;2.58;;;8.70;99.90;;;;;;4150800;28;20140;-66
2022/10/12 05:25:55;;;;;;;4.90;2.60;;;8.60;99.90;;;;;;4156579;28;20033;-66
2022/10/12 05:27:56;;;;;;;5.10;2.92;;;8.60;99.90;;;;;;4132859;28;20081;-66
2022/10/12 05:29:56;;;;;;;5.88;2.72;;;8.60;99.90;;;;;;4146059;28;20038;-66
2022/10/12 05:31:57;;;;;;;5.32;2.75;;;8.50;99.90;;;;;;4149564;28;20038;-66
2022/10/12 05:33:57;;;;;;;7.20;2.78;;;8.50;99.90;;;;;;4148653;28;20033;-66
2022/10/12 05:35:58;;;;;;;5.43;2.92;;;8.50;99.90;;;;;;4156084;28;20057;-65
2022/10/12 05:37:58;;;;;;;4.93;2.80;;;8.50;99.90;;;;;;4151622;28;20045;-65
2022/10/12 05:39:59;;;;;;;7.95;3.00;;;8.50;99.90;;;;;;4154167;28;20021;-65
2022/10/12 05:42:00;;;;;;;5.93;2.90;;;8.60;99.90;;;;;;4151359;28;20112;-65
2022/10/12 05:44:00;;;;;;;4.50;2.58;;;8.50;99.90;;;;;;4153862;28;20065;-65
2022/10/12 05:46:01;;;;;;;5.55;3.03;;;8.50;99.90;;;;;;4152146;28;20053;-66
2022/10/12 05:48:01;;;;;;;4.75;2.38;;;8.50;99.90;;;;;;4148887;28;20030;-65
2022/10/12 05:50:04;;;;;;;4.00;2.55;;;8.50;99.90;;;;;;4152865;28;20489;-65
2022/10/12 05:52:04;;;;;;;3.65;2.30;;;8.50;99.90;;;;;;4151578;28;20033;-66
2022/10/12 05:54:05;;;;;;;5.07;2.60;;;8.50;99.90;;;;;;4152592;28;20044;-65
2022/10/12 05:56:06;;;;;;;4.20;2.55;;;8.50;99.90;;;;;;4154309;28;20504;-65
2022/10/12 05:58:06;;;;;;;4.90;2.58;;;8.50;99.90;;;;;;4155376;28;20049;-66
2022/10/12 06:00:08;;;;;;;8.65;3.25;;;8.40;99.90;;;;;;4149880;28;20029;-66
2022/10/12 06:02:16;;;;;;;6.85;2.92;;;8.40;99.90;;;;;;4151702;28;20049;-65
2022/10/12 06:04:16;;;;;;;5.72;2.88;;;8.40;99.90;;;;;;4154532;28;20033;-65
2022/10/12 06:06:17;;;;;;;4.13;2.70;;;8.40;99.90;;;;;;4154168;28;20090;-66
2022/10/12 06:08:17;;;;;;;6.80;3.00;;;8.40;99.90;;;;;;4152945;28;20026;-65
2022/10/12 06:10:18;;;;;;;4.50;2.50;;;8.40;99.90;;;;;;4150929;28;20042;-67
2022/10/12 06:12:19;;;;;;;6.03;2.88;;;8.40;99.90;;;;;;4147602;28;20041;-67
2022/10/12 06:14:19;;;;;;;5.15;2.55;;;8.40;99.90;;;;;;4148854;28;20041;-66
2022/10/12 06:16:20;;;;;;;6.47;2.72;;;8.40;99.90;;;;;;4145509;28;20026;-66
2022/10/12 06:18:21;;;;;;;4.07;2.60;;;8.40;99.90;;;;;;4153241;28;20056;-66
2022/10/12 06:20:21;;;;;;;4.70;2.78;;;8.30;99.90;;;;;;4135798;28;20027;-66
2022/10/12 06:22:22;;;;;;;3.63;2.40;;;8.40;99.90;;;;;;4154674;28;20025;-65
2022/10/12 06:24:22;;;;;;;4.47;2.67;;;8.30;99.90;;;;;;4157739;28;20028;-66
2022/10/12 06:26:23;;;;;;;6.80;2.30;;;8.30;99.90;;;;;;4160586;28;20060;-66
2022/10/12 06:28:24;;;;;;;6.38;2.95;;;8.30;99.90;;;;;;4157164;28;20060;-66
2022/10/12 06:30:25;;;;;;;3.10;2.20;;;8.30;99.90;;;;;;4157076;28;20040;-65
2022/10/12 06:32:25;;;;;;;5.07;2.67;;;8.30;99.90;;;;;;4156588;28;20075;-66
2022/10/12 06:34:26;;;;;;;6.88;3.20;;;8.30;99.90;;;;;;4160358;28;20033;-66
2022/10/12 06:36:26;;;;;;;5.63;3.00;;;8.30;99.90;;;;;;4157605;28;20022;-66
2022/10/12 06:38:27;;;;;;;5.07;2.92;;;8.30;99.90;;;;;;4161174;28;20021;-65
2022/10/12 06:40:28;;;;;;;4.95;3.25;;;8.40;99.90;;;;;;4154396;28;20400;-66
2022/10/12 06:42:28;;;;;;;5.38;3.10;;;8.30;99.90;;;;;;4147161;28;20393;-65
2022/10/12 06:44:29;;;;;;;4.40;2.90;;;8.30;99.90;;;;;;4133660;28;20122;-65
2022/10/12 06:46:30;;;;;;;6.22;3.72;;;8.40;99.90;;;;;;4148911;28;20034;-66
2022/10/12 06:48:30;;;;;;;6.85;3.35;;;8.40;99.90;;;;;;4161170;28;20397;-66
2022/10/12 06:50:31;;;;;;;6.75;3.70;;;8.40;99.90;;;;;;4154984;28;20551;-66
2022/10/12 06:52:31;;;;;;;9.13;4.03;;;8.40;99.90;;;;;;4159001;28;20033;-66
2022/10/12 06:54:32;;;;;;;5.82;3.42;;;8.40;99.90;;;;;;4144906;28;20188;-66
2022/10/12 06:56:33;;;;;;;6.57;3.22;;;8.50;99.90;;;;;;4143837;28;20018;-66
2022/10/12 06:58:34;;;;;;;7.80;3.90;;;8.50;99.90;;;;;;4157077;28;20061;-66
2022/10/12 07:00:35;;;;;;;7.18;3.90;;;8.50;99.90;;;;;;4145189;28;20029;-66
2022/10/12 07:02:35;;;;;;;7.70;3.70;;;8.60;99.90;;;;;;4129387;28;20051;-66
2022/10/12 07:04:36;;;;;;;7.53;3.40;;;8.60;99.90;;;;;;4148581;28;20034;-66
2022/10/12 07:06:37;;;;;;;6.57;3.55;;;8.70;99.90;;;;;;4150012;28;20126;-66
2022/10/12 07:08:39;;;;;;;7.13;3.95;;;8.70;99.90;;;;;;4147841;28;20026;-66
2022/10/12 07:10:40;;;;;;;5.72;3.25;;;8.80;99.90;;;;;;4152062;28;20081;-66
2022/10/12 07:12:40;;;;;;;8.50;3.65;;;8.90;99.90;;;;;;4160227;28;20025;-66
2022/10/12 07:14:41;;;;;;;6.82;3.92;;;9.00;99.90;;;;;;4155226;28;20045;-66
2022/10/12 07:16:42;;;;;;;6.90;4.18;;;9.00;99.90;;;;;;4154472;28;20034;-66
2022/10/12 07:18:42;;;;;;;13.85;4.93;;;9.10;99.90;;;;;;4148537;28;20048;-66
2022/10/12 07:20:43;;;;;;;12.70;5.50;;;9.20;99.90;;;;;;4146237;28;20429;-66
2022/10/12 07:22:44;;;;;;;11.38;5.38;;;9.30;99.90;;;;;;4153034;28;20038;-66
2022/10/12 07:24:44;;;;;;;10.40;5.90;;;9.40;99.90;;;;;;4154007;28;20052;-66
2022/10/12 07:26:45;;;;;;;8.25;5.13;;;9.50;99.90;;;;;;4151200;28;20034;-66
2022/10/12 07:28:46;;;;;;;11.45;5.78;;;9.50;99.90;;;;;;4153749;28;20029;-66
2022/10/12 07:30:47;;;;;;;10.82;6.03;;;9.70;99.90;;;;;;4153263;28;20442;-66
2022/10/12 07:32:47;;;;;;;14.23;5.85;;;9.80;99.90;;;;;;4156305;28;20037;-66
2022/10/12 07:34:48;;;;;;;16.30;7.43;;;9.90;99.90;;;;;;4160742;28;20397;-66
2022/10/12 07:36:49;;;;;;;18.48;6.80;;;10.00;99.90;;;;;;4142210;28;20034;-67
2022/10/12 07:38:49;;;;;;;14.50;7.35;;;10.00;99.90;;;;;;4160250;28;20049;-66
2022/10/12 07:40:50;;;;;;;18.88;7.75;;;10.20;99.90;;;;;;4157422;28;20049;-66
2022/10/12 07:42:51;;;;;;;13.27;7.07;;;10.40;99.90;;;;;;4152722;28;20044;-66
2022/10/12 07:44:52;;;;;;;15.27;6.28;;;10.50;99.90;;;;;;4157848;28;20038;-66
2022/10/12 07:46:52;;;;;;;12.13;6.88;;;10.70;99.90;;;;;;4152805;28;20096;-66
2022/10/12 07:48:53;;;;;;;11.10;5.75;;;10.90;99.90;;;;;;4160163;28;20046;-66
2022/10/12 07:50:53;;;;;;;15.20;6.85;;;11.10;99.90;;;;;;4147437;28;20039;-66
2022/10/12 07:52:54;;;;;;;11.73;6.25;;;11.30;99.90;;;;;;4156315;28;20034;-67
2022/10/12 07:54:54;;;;;;;13.80;6.03;;;11.40;99.90;;;;;;4142731;28;20099;-66
2022/10/12 07:56:55;;;;;;;13.13;6.55;;;11.50;99.90;;;;;;4157154;28;20038;-66
2022/10/12 07:58:57;;;;;;;14.63;6.15;;;11.60;99.90;;;;;;4161413;28;20116;-66
2022/10/12 08:01:05;;;;;;;13.50;6.43;;;11.70;99.90;;;;;;4152701;28;20507;-67
2022/10/12 08:03:06;;;;;;;11.80;5.80;;;11.80;99.90;;;;;;4149365;28;20041;-66
2022/10/12 08:05:07;;;;;;;13.80;6.78;;;11.80;99.90;;;;;;4155530;28;20389;-67
2022/10/12 08:07:07;;;;;;;11.05;6.25;;;11.90;99.90;;;;;;4162898;28;20035;-67
2022/10/12 08:09:08;;;;;;;12.80;6.75;;;11.90;99.90;;;;;;4159100;28;21512;-66
2022/10/12 08:11:10;;;;;;;12.73;6.20;;;12.10;99.90;;;;;;4154207;28;20452;-66
2022/10/12 08:13:11;;;;;;;10.95;6.30;;;12.10;99.90;;;;;;4163348;28;20040;-66
2022/10/12 08:15:12;;;;;;;12.75;5.97;;;12.30;99.90;;;;;;4161151;28;20046;-66
2022/10/12 08:17:13;;;;;;;10.18;5.75;;;12.60;99.90;;;;;;4158359;28;20033;-66
2022/10/12 08:19:13;;;;;;;10.13;5.45;;;12.80;99.90;;;;;;4163065;28;20048;-66
2022/10/12 08:21:16;;;;;;;13.43;5.90;;;13.10;99.90;;;;;;4160339;28;20033;-67
2022/10/12 08:23:16;;;;;;;11.43;5.65;;;13.30;99.90;;;;;;4157562;28;20040;-67
2022/10/12 08:25:17;;;;;;;13.50;5.88;;;13.40;99.90;;;;;;4155309;28;20064;-66
2022/10/12 08:27:17;;;;;;;11.85;5.70;;;13.50;99.90;;;;;;4160841;28;20495;-66
2022/10/12 08:29:18;;;;;;;12.20;5.88;;;13.60;99.90;;;;;;4159372;28;20040;-67
2022/10/12 08:31:19;;;;;;;10.70;5.93;;;13.60;99.90;;;;;;4158586;28;20025;-67
2022/10/12 08:33:20;;;;;;;14.15;5.63;;;13.70;99.90;;;;;;4160238;28;20034;-67
2022/10/12 08:35:20;;;;;;;11.13;5.88;;;13.80;99.90;;;;;;4160216;28;20124;-67
2022/10/12 08:37:21;;;;;;;10.25;4.90;;;13.80;99.90;;;;;;4163372;28;20060;-68
2022/10/12 08:39:21;;;;;;;8.70;4.68;;;13.80;99.90;;;;;;4163147;28;20113;-67
2022/10/12 08:41:48;;;;;;;8.15;5.00;;;13.80;99.90;;;;;;4153433;28;20022;-67
2022/10/12 08:44:07;;;;;;;18.42;5.57;;;13.80;99.90;;;;;;4155170;28;20044;-68
2022/10/12 08:46:08;;;;;;;7.72;4.43;;;13.80;99.90;;;;;;4150695;28;20042;-67
2022/10/12 08:48:16;;;;;;;9.60;4.97;;;13.80;99.90;;;;;;4162670;28;20164;-67
2022/10/12 08:50:31;;;;;;;9.50;4.97;;;13.80;99.90;;;;;;4158518;28;20286;-68
2022/10/12 08:52:37;;;;;;;10.95;4.90;;;13.80;99.90;;;;;;4155716;28;20037;-67
2022/10/12 08:54:43;;;;;;;10.45;4.82;;;13.90;99.90;;;;;;4163293;28;20045;-67
2022/10/12 08:56:44;;;;;;;11.25;5.47;;;13.80;99.90;;;;;;4161549;28;20045;-67
2022/10/12 08:58:45;;;;;;;11.40;4.70;;;13.70;99.90;;;;;;4162339;28;20030;-67
2022/10/12 09:00:58;;;;;;;9.60;4.53;;;13.70;99.90;;;;;;4156582;28;20026;-67
2022/10/12 09:03:12;;;;;;;10.43;4.57;;;13.70;99.90;;;;;;4162640;28;20042;-67
2022/10/12 09:05:32;;;;;;;9.63;4.78;;;13.80;99.90;;;;;;4161969;28;20026;-66
2022/10/12 09:07:41;;;;;;;7.93;4.60;;;13.70;99.90;;;;;;4154880;28;20029;-67
2022/10/12 09:10:13;;;;;;;9.00;4.43;;;13.70;99.90;;;;;;4162301;28;20405;-67
2022/10/12 09:12:35;;;;;;;9.88;4.10;;;13.60;99.90;;;;;;4153074;28;20389;-67
2022/10/12 09:14:40;;;;;;;8.80;4.40;;;13.70;99.90;;;;;;4161727;28;20049;-67
2022/10/12 09:16:44;;;;;;;6.85;3.72;;;13.60;99.90;;;;;;4161432;28;20064;-67
2022/10/12 09:18:51;;;;;;;8.23;3.85;;;13.60;99.90;;;;;;4162800;28;20025;-67
2022/10/12 09:20:52;;;;;;;9.93;3.78;;;13.60;99.90;;;;;;4137223;28;20030;-67
2022/10/12 09:22:58;;;;;;;8.30;3.00;;;13.70;99.90;;;;;;4153403;28;20465;-67
2022/10/12 09:25:01;;;;;;;6.10;3.42;;;13.70;99.90;;;;;;4151568;28;20477;-67
2022/10/12 09:27:13;;;;;;;12.90;4.40;;;13.80;99.90;;;;;;4148686;28;20040;-67
2022/10/12 09:29:20;;;;;;;9.75;3.42;;;13.80;99.90;;;;;;4157357;28;20493;-67
2022/10/12 09:31:37;;;;;;;9.15;4.10;;;13.90;99.90;;;;;;4148957;28;20030;-67
2022/10/12 09:33:47;;;;;;;11.60;4.25;;;14.00;99.90;;;;;;4159434;28;20044;-67
2022/10/12 09:35:49;;;;;;;8.38;3.83;;;14.00;99.90;;;;;;4155280;28;20037;-67
2022/10/12 09:37:52;;;;;;;8.98;4.18;;;14.00;99.90;;;;;;4144624;28;20068;-67
2022/10/12 09:39:54;;;;;;;9.93;4.18;;;14.00;99.90;;;;;;4161303;28;20041;-67
2022/10/12 09:41:54;;;;;;;7.13;3.65;;;14.10;99.90;;;;;;4154438;28;20089;-67
2022/10/12 09:43:58;;;;;;;7.63;3.63;;;14.10;99.90;;;;;;4142192;28;20037;-67
2022/10/12 09:46:04;;;;;;;7.50;3.15;;;14.20;99.90;;;;;;4137413;28;20042;-67
2022/10/12 09:48:12;;;;;;;9.10;3.78;;;14.20;99.90;;;;;;4159567;28;20047;-67
2022/10/12 09:50:12;;;;;;;9.15;4.07;;;14.30;99.90;;;;;;4153748;28;20066;-67
2022/10/12 09:52:16;;;;;;;6.97;3.40;;;14.30;99.90;;;;;;4151588;28;20040;-67
2022/10/12 09:54:18;;;;;;;8.75;3.80;;;14.40;99.90;;;;;;4151556;28;20030;-66
2022/10/12 09:56:29;;;;;;;7.53;3.95;;;14.40;99.90;;;;;;4147528;28;20077;-67
2022/10/12 09:58:40;;;;;;;7.80;3.53;;;14.50;99.90;;;;;;4154573;28;20057;-67
2022/10/12 10:00:41;;;;;;;10.80;4.03;;;14.50;99.90;;;;;;4155910;28;20374;-67
2022/10/12 10:02:49;;;;;;;8.65;3.30;;;14.60;99.90;;;;;;4157544;28;20089;-67
2022/10/12 10:04:51;;;;;;;8.27;3.97;;;14.60;99.90;;;;;;4161066;28;20474;-67
2022/10/12 10:06:52;;;;;;;8.43;3.60;;;14.70;99.90;;;;;;4161106;28;20037;-67
2022/10/12 10:08:55;;;;;;;8.45;3.33;;;14.70;99.90;;;;;;4159019;28;20295;-67
2022/10/12 10:10:58;;;;;;;;;;;14.70;99.90;;;;;;4149961;28;20113;-67
2022/10/12 10:13:01;;;;;;;8.50;3.70;;;14.80;99.90;;;;;;4153996;28;19917;-67
2022/10/12 10:15:02;;;;;;;10.70;3.92;;;14.80;99.90;;;;;;4153204;28;20057;-69
2022/10/12 10:17:03;;;;;;;7.85;3.55;;;14.90;99.90;;;;;;4147759;28;20030;-67
2022/10/12 10:19:04;;;;;;;9.35;3.58;;;14.90;99.90;;;;;;4161473;28;20069;-66
2022/10/12 10:21:07;;;;;;;6.38;3.60;;;15.00;99.90;;;;;;4157547;28;20044;-67
2022/10/12 10:23:30;;;;;;;7.80;3.75;;;15.10;99.90;;;;;;4157385;28;20045;-67
2022/10/12 10:25:31;;;;;;;8.55;4.05;;;15.10;99.90;;;;;;4128396;28;20034;-70
2022/10/12 10:27:36;;;;;;;10.10;3.92;;;15.10;99.90;;;;;;4153668;28;20042;-72
2022/10/12 10:29:39;;;;;;;9.93;4.25;;;15.20;99.90;;;;;;4158803;28;20381;-71
2022/10/12 10:31:40;;;;;;;9.90;4.30;;;15.20;99.90;;;;;;4156537;28;20049;-71
2022/10/12 10:33:42;;;;;;;11.02;4.30;;;15.20;99.90;;;;;;4151472;28;20116;-72
2022/10/12 11:19:41;;;;;;;13.43;4.50;;;15.10;99.90;;;;;;4147350;28;20411;-63
2022/10/12 11:21:47;;;;;;;9.68;4.18;;;15.10;99.90;;;;;;4134817;28;20084;-63
2022/10/12 11:24:12;;;;;;;8.95;4.13;;;15.10;99.90;;;;;;4128627;28;20030;-64
2022/10/12 11:26:36;;;;;;;8.57;3.20;;;15.10;99.90;;;;;;4126438;28;20027;-64
2022/10/12 11:28:37;;;;;;;11.20;4.32;;;15.10;99.90;;;;;;4131472;28;20081;-64
2022/10/12 11:30:42;;;;;;;10.07;3.88;;;15.20;99.90;;;;;;4133144;28;20504;-64
2022/10/12 11:33:07;;;;;;;8.27;3.30;;;15.20;99.90;;;;;;4135521;28;20035;-64